Time;durP1;ratioP1;P1;durP2;ratioP2;P2;SDS_P1;SDS_P2;PMS_P1;PMS_P2;Temp;Humidity;BMP_temperature;BMP_pressure;BME280_temperature;BME280_humidity;BME280_pressure;Samples;Min_cycle;Max_cycle;Signal;HPM_P1;HPM_P2
2022/12/08 00:01:49;;;;;;;;;;;;;;;25.59;42.93;93671.94;4913351;29;7028;-63
2022/12/08 00:04:17;;;;;;;;;;;;;;;25.58;43.12;93672.47;4915262;29;7131;-63
2022/12/08 00:09:37;;;;;;;;;;;;;;;25.56;43.35;93666.72;4911569;29;7114;-61
2022/12/08 00:12:07;;;;;;;;;;;;;;;25.57;43.18;93663.47;4894764;29;8805;-63
2022/12/08 00:14:40;;;;;;;;;;;;;;;25.58;43.45;93664.94;4895252;29;7306;-63
2022/12/08 00:17:13;;;;;;;;;;;;;;;25.59;42.79;93665.69;4911324;29;8253;-64
2022/12/08 00:19:52;;;;;;;;;;;;;;;25.56;43.44;93656.47;4917324;29;7337;-63
2022/12/08 00:22:21;;;;;;;;;;;;;;;25.57;43.59;93651.72;4883489;29;7469;-63
2022/12/08 00:25:02;;;;;;;;;;;;;;;25.56;43.34;93653.72;4914167;29;9700;-63
2022/12/08 00:27:34;;;;;;;;;;;;;;;25.55;42.65;93643.25;4986918;28;8682;-63
2022/12/08 00:30:01;;;;;;;;;;;;;;;25.55;42.79;93646.75;4989509;28;7611;-64
2022/12/08 00:32:29;;;;;;;;;;;;;;;25.56;43.49;93642.69;4998651;28;7264;-62
2022/12/08 00:34:55;;;;;;;;;;;;;;;25.56;43.36;93644.69;4992223;28;8879;-64
2022/12/08 00:37:40;;;;;;;;;;;;;;;25.54;42.97;93636.97;4986631;28;8672;-63
2022/12/08 00:40:08;;;;;;;;;;;;;;;25.54;43.29;93631.47;4983166;28;10120;-62
2022/12/08 00:42:38;;;;;;;;;;;;;;;25.57;43.07;93638.69;4985037;28;7308;-61
2022/12/08 00:45:07;;;;;;;;;;;;;;;25.54;42.89;93631.47;4976142;28;7323;-63
2022/12/08 00:47:39;;;;;;;;;;;;;;;25.56;43.49;93631.69;4985071;28;9047;-63
2022/12/08 00:50:06;;;;;;;;;;;;;;;25.56;42.85;93634.44;4981899;28;7047;-63
2022/12/08 00:53:01;;;;;;;;;;;;;;;25.57;42.70;93635.19;4992660;28;7039;-63
2022/12/08 00:55:27;;;;;;;;;;;;;;;25.56;43.13;93633.69;4901202;29;9050;-63
2022/12/08 00:58:00;;;;;;;;;;;;;;;25.56;43.20;93630.94;4914260;29;9183;-63
2022/12/08 01:00:28;;;;;;;;;;;;;;;25.55;43.08;93632.97;4900543;29;7132;-63
2022/12/08 01:03:13;;;;;;;;;;;;;;;25.57;42.83;93641.44;4898010;29;7129;-63
2022/12/08 01:05:43;;;;;;;;;;;;;;;25.56;42.94;93637.19;4916839;29;9009;-63
2022/12/08 01:08:20;;;;;;;;;;;;;;;25.56;42.77;93634.44;4916930;29;7468;-64
2022/12/08 01:10:48;;;;;;;;;;;;;;;25.55;42.79;93635.72;4900102;29;9400;-62
2022/12/08 01:13:14;;;;;;;;;;;;;;;25.54;42.83;93634.22;4912836;29;7338;-62
2022/12/08 01:15:39;;;;;;;;;;;;;;;25.57;42.47;93635.19;4916183;29;7199;-63
2022/12/08 01:18:36;;;;;;;;;;;;;;;25.57;43.20;93633.19;4916470;29;6990;-64
2022/12/08 01:21:05;;;;;;;;;;;;;;;25.55;42.98;93634.97;4916918;29;7035;-63
2022/12/08 01:23:43;;;;;;;;;;;;;;;25.56;42.83;93637.19;4900951;29;7520;-62
2022/12/08 01:26:19;;;;;;;;;;;;;;;25.55;42.41;93626.72;4916209;29;7452;-63
2022/12/08 01:29:09;;;;;;;;;;;;;;;25.54;43.07;93639.75;4893318;29;7260;-63
2022/12/08 01:31:48;;;;;;;;;;;;;;;25.54;43.11;93639.00;4945155;28;7473;-62
2022/12/08 01:34:18;;;;;;;;;;;;;;;25.52;43.08;93634.00;4985631;28;7291;-64
2022/12/08 01:36:50;;;;;;;;;;;;;;;25.54;43.07;93630.72;4994882;28;7049;-63
2022/12/08 01:39:18;;;;;;;;;;;;;;;25.52;42.51;93639.53;4977592;28;7239;-63
2022/12/08 01:42:21;;;;;;;;;;;;;;;25.54;42.42;93641.75;4993705;28;7115;-63
2022/12/08 01:45:14;;;;;;;;;;;;;;;25.52;42.29;93639.53;4988121;28;7037;-63
2022/12/08 01:47:47;;;;;;;;;;;;;;;25.52;42.78;93622.25;4987486;28;9817;-63
2022/12/08 01:50:21;;;;;;;;;;;;;;;25.53;42.60;93627.25;4992124;28;9210;-63
2022/12/08 01:52:56;;;;;;;;;;;;;;;25.52;42.53;93625.00;5000974;28;7141;-63
2022/12/08 01:55:30;;;;;;;;;;;;;;;25.50;42.35;93630.31;4979823;28;7511;-63
2022/12/08 01:58:17;;;;;;;;;;;;;;;25.51;42.90;93620.78;4980297;28;7302;-63
2022/12/08 02:00:44;;;;;;;;;;;;;;;25.51;43.08;93620.78;4987124;28;7099;-63
2022/12/08 02:03:27;;;;;;;;;;;;;;;25.51;42.54;93609.78;4982777;28;7264;-63
2022/12/08 02:06:02;;;;;;;;;;;;;;;25.50;42.99;93609.03;4993907;28;7171;-63
2022/12/08 02:08:45;;;;;;;;;;;;;;;25.49;42.80;93599.28;4985466;28;7223;-62
2022/12/08 02:11:12;;;;;;;;;;;;;;;25.51;42.94;93605.00;5000206;28;7230;-61
2022/12/08 02:13:44;;;;;;;;;;;;;;;25.51;42.78;93607.78;4985982;28;7613;-63
2022/12/08 02:17:09;;;;;;;;;;;;;;;25.51;42.58;93599.50;4982675;28;7320;-63
2022/12/08 02:20:08;;;;;;;;;;;;;;;25.51;43.17;93598.75;4983539;28;10743;-63
2022/12/08 02:23:09;;;;;;;;;;;;;;;25.50;42.10;93598.00;4949600;28;8754;-62
2022/12/08 02:26:34;;;;;;;;;;;;;;;25.50;42.55;93595.25;4944275;28;7273;-63
2022/12/08 02:29:37;;;;;;;;;;;;;;;25.51;43.00;93587.75;4900390;29;9309;-63
2022/12/08 02:32:45;;;;;;;;;;;;;;;25.50;42.23;93587.00;4895716;29;7011;-62
2022/12/08 02:35:50;;;;;;;;;;;;;;;25.51;43.00;93587.75;4891493;29;9263;-64
2022/12/08 02:38:49;;;;;;;;;;;;;;;25.51;42.97;93577.47;4890253;29;7298;-63
2022/12/08 02:41:37;;;;;;;;;;;;;;;25.48;43.02;93570.28;4893228;29;7058;-63
2022/12/08 02:44:27;;;;;;;;;;;;;;;25.50;43.03;93576.00;4879816;29;7487;-63
2022/12/08 02:47:02;;;;;;;;;;;;;;;25.50;42.95;93573.22;4896547;29;7259;-63
2022/12/08 02:49:31;;;;;;;;;;;;;;;25.48;43.01;93567.50;4877894;29;7316;-63
2022/12/08 02:52:17;;;;;;;;;;;;;;;25.50;42.58;93570.47;4875979;29;7296;-63
2022/12/08 02:54:52;;;;;;;;;;;;;;;25.50;42.08;93564.22;4893024;29;9244;-64
2022/12/08 02:57:19;;;;;;;;;;;;;;;25.50;42.07;93564.22;4895687;29;7156;-63
2022/12/08 03:00:12;;;;;;;;;;;;;;;25.51;42.27;93568.47;4907556;29;10056;-64
2022/12/08 03:03:00;;;;;;;;;;;;;;;25.51;42.57;93560.22;4962567;28;7220;-63
2022/12/08 03:05:42;;;;;;;;;;;;;;;25.51;42.51;93554.72;4992937;28;7221;-64
2022/12/08 03:08:38;;;;;;;;;;;;;;;25.50;42.17;93545.69;4987865;28;7051;-63
2022/12/08 03:11:09;;;;;;;;;;;;;;;25.50;42.08;93553.97;4936811;28;9118;-63
2022/12/08 03:14:00;;;;;;;;;;;;;;;25.50;41.97;93551.22;4934616;28;9119;-61
2022/12/08 03:16:45;;;;;;;;;;;;;;;25.49;42.55;93546.97;4925835;28;7171;-63
2022/12/08 03:19:25;;;;;;;;;;;;;;;25.48;42.45;93544.75;4928303;28;7252;-64
2022/12/08 03:22:01;;;;;;;;;;;;;;;25.49;42.43;93544.22;4936761;28;7023;-63
2022/12/08 03:24:38;;;;;;;;;;;;;;;25.49;42.84;93541.44;4952211;28;9116;-63
2022/12/08 03:27:25;;;;;;;;;;;;;;;25.49;42.03;93543.47;4935350;28;7217;-62
2022/12/08 03:30:04;;;;;;;;;;;;;;;25.48;42.58;93539.97;4929281;28;7301;-60
2022/12/08 03:32:46;;;;;;;;;;;;;;;25.50;41.89;93539.44;4925652;29;10742;-62
2022/12/08 03:35:30;;;;;;;;;;;;;;;25.49;41.51;93533.19;4931869;28;6964;-62
2022/12/08 03:38:06;;;;;;;;;;;;;;;25.49;42.15;93530.44;4933405;28;7078;-61
2022/12/08 03:40:37;;;;;;;;;;;;;;;25.48;42.59;93517.97;4916492;28;7023;-61
2022/12/08 03:43:03;;;;;;;;;;;;;;;25.48;41.98;93517.97;4927502;28;8866;-62
2022/12/08 03:45:32;;;;;;;;;;;;;;;25.49;41.87;93515.94;4919714;29;8779;-61
2022/12/08 03:48:18;;;;;;;;;;;;;;;25.49;42.82;93507.69;4969059;28;7297;-61
2022/12/08 03:50:47;;;;;;;;;;;;;;;25.49;42.52;93508.41;4997203;28;7372;-62
2022/12/08 03:53:30;;;;;;;;;;;;;;;25.49;42.51;93497.41;4986650;28;7043;-62
2022/12/08 03:55:55;;;;;;;;;;;;;;;25.50;42.45;93503.66;4969501;28;7260;-60
2022/12/08 03:58:24;;;;;;;;;;;;;;;25.49;42.41;93500.16;4985374;28;7254;-61
2022/12/08 04:00:54;;;;;;;;;;;;;;;25.51;42.06;93494.88;4976403;28;9333;-62
2022/12/08 04:03:51;;;;;;;;;;;;;;;25.51;42.36;93500.38;4987837;28;10649;-62
2022/12/08 04:06:19;;;;;;;;;;;;;;;25.50;42.69;93498.16;4951055;28;7266;-62
2022/12/08 04:08:59;;;;;;;;;;;;;;;25.50;42.05;93501.66;4957536;28;7267;-62
2022/12/08 04:11:25;;;;;;;;;;;;;;;25.51;42.12;93494.88;4941383;28;7041;-63
2022/12/08 04:13:53;;;;;;;;;;;;;;;25.49;41.94;93496.69;4937580;28;7208;-62
2022/12/08 04:16:27;;;;;;;;;;;;;;;25.50;42.52;93487.88;4937104;28;6986;-63
2022/12/08 04:18:55;;;;;;;;;;;;;;;25.50;42.00;93485.13;4955658;28;7516;-63
2022/12/08 04:21:29;;;;;;;;;;;;;;;25.49;42.02;93480.16;4963840;28;7041;-63
2022/12/08 04:24:04;;;;;;;;;;;;;;;25.49;42.22;93478.13;4949135;28;8550;-63
2022/12/08 04:26:43;;;;;;;;;;;;;;;25.50;42.07;93481.63;4950947;28;7356;-62
2022/12/08 04:29:30;;;;;;;;;;;;;;;25.50;42.33;93478.88;4929771;28;7898;-63
2022/12/08 04:32:05;;;;;;;;;;;;;;;25.48;42.10;93473.91;4940535;28;8755;-63
2022/12/08 04:34:44;;;;;;;;;;;;;;;25.49;42.43;93469.16;4939121;28;7267;-63
2022/12/08 04:37:19;;;;;;;;;;;;;;;25.47;41.81;93472.41;4954805;28;9005;-63
2022/12/08 04:39:57;;;;;;;;;;;;;;;25.48;41.32;93473.91;4926530;28;7010;-62
2022/12/08 04:42:25;;;;;;;;;;;;;;;25.49;42.49;93469.88;4949930;28;7101;-62
2022/12/08 04:44:55;;;;;;;;;;;;;;;25.48;42.23;93473.16;4990128;28;8520;-63
2022/12/08 04:47:21;;;;;;;;;;;;;;;25.48;42.19;93471.16;4987589;28;7188;-62
2022/12/08 04:49:50;;;;;;;;;;;;;;;25.49;41.63;93466.41;4991862;28;6983;-63
2022/12/08 04:52:18;;;;;;;;;;;;;;;25.47;42.53;93469.66;5002030;28;8979;-63
2022/12/08 04:55:00;;;;;;;;;;;;;;;25.49;41.70;93471.91;4978357;28;8145;-63
2022/12/08 04:57:36;;;;;;;;;;;;;;;25.48;42.10;93468.41;4982006;28;7419;-64
2022/12/08 05:00:16;;;;;;;;;;;;;;;25.46;41.68;93476.47;4986609;28;7219;-63
2022/12/08 05:03:03;;;;;;;;;;;;;;;25.49;42.37;93469.88;4992967;28;7802;-63
2022/12/08 05:05:35;;;;;;;;;;;;;;;25.48;41.81;93468.41;4986248;28;7046;-63
2022/12/08 05:08:07;;;;;;;;;;;;;;;25.48;41.97;93473.91;4985856;28;8970;-63
2022/12/08 05:10:32;;;;;;;;;;;;;;;25.48;41.80;93473.16;4993692;28;7116;-62
2022/12/08 05:13:01;;;;;;;;;;;;;;;25.47;42.43;93466.91;4993895;28;7368;-63
2022/12/08 05:15:27;;;;;;;;;;;;;;;25.48;41.56;93468.41;4995446;28;7145;-63
2022/12/08 05:17:54;;;;;;;;;;;;;;;25.48;42.00;93468.41;4981973;28;8201;-63
2022/12/08 05:20:25;;;;;;;;;;;;;;;25.52;42.11;93471.56;4992181;28;7469;-63
2022/12/08 05:22:55;;;;;;;;;;;;;;;25.54;42.10;93471.03;4992425;28;7038;-63
2022/12/08 05:25:27;;;;;;;;;;;;;;;25.52;41.89;93470.81;4990999;28;9003;-63
2022/12/08 05:27:54;;;;;;;;;;;;;;;25.52;42.45;93468.81;4975554;28;7024;-63
2022/12/08 05:30:28;;;;;;;;;;;;;;;25.50;42.76;93471.38;4994517;28;7147;-63
2022/12/08 05:32:55;;;;;;;;;;;;;;;25.50;42.25;93465.84;4987371;28;8323;-64
2022/12/08 05:35:22;;;;;;;;;;;;;;;25.48;41.97;93471.16;4992165;28;7035;-62
2022/12/08 05:37:54;;;;;;;;;;;;;;;25.50;42.43;93465.84;4983584;28;7309;-62
2022/12/08 05:40:22;;;;;;;;;;;;;;;25.54;42.64;93462.78;4980374;28;7037;-62
2022/12/08 05:42:52;;;;;;;;;;;;;;;25.58;42.29;93452.91;4984191;28;7346;-62
2022/12/08 05:45:26;;;;;;;;;;;;;;;25.57;42.59;93454.19;4980757;28;7511;-61
2022/12/08 05:47:55;;;;;;;;;;;;;;;25.58;42.35;93455.66;4987939;28;7647;-62
2022/12/08 05:50:23;;;;;;;;;;;;;;;25.61;41.72;93451.84;4986237;28;9435;-63
2022/12/08 05:52:51;;;;;;;;;;;;;;;25.62;42.42;93452.59;4980785;28;7031;-62
2022/12/08 05:55:23;;;;;;;;;;;;;;;25.69;42.02;93457.44;4992031;28;7130;-63
2022/12/08 05:57:51;;;;;;;;;;;;;;;25.69;41.81;93452.69;4985198;28;7374;-63
2022/12/08 06:00:20;;;;;;;;;;;;;;;25.67;42.10;93444.22;4990896;28;7162;-62
2022/12/08 06:02:49;;;;;;;;;;;;;;;25.71;42.13;93452.16;4990141;28;7132;-62
2022/12/08 06:05:48;;;;;;;;;;;;;;;25.74;41.73;93462.84;4982150;28;7087;-63
2022/12/08 06:08:17;;;;;;;;;;;;;;;25.73;41.47;93461.34;4984083;28;7493;-63
2022/12/08 06:10:44;;;;;;;;;;;;;;;25.73;42.21;93466.84;4995487;28;9092;-63
2022/12/08 06:13:14;;;;;;;;;;;;;;;25.71;41.79;93463.19;4992332;28;9103;-63
2022/12/08 06:15:44;;;;;;;;;;;;;;;25.72;41.17;93461.88;4990494;28;7486;-62
2022/12/08 06:18:15;;;;;;;;;;;;;;;25.73;40.64;93466.13;4995026;28;7263;-62
2022/12/08 06:21:16;;;;;;;;;;;;;;;25.68;40.96;93469.75;4986055;28;11227;-62
2022/12/08 06:24:12;;;;;;;;;;;;;;;25.64;41.45;93475.59;4980872;28;7354;-61
2022/12/08 06:26:42;;;;;;;;;;;;;;;25.67;42.10;93477.25;4943460;28;9126;-62
2022/12/08 06:29:09;;;;;;;;;;;;;;;25.68;41.49;93467.72;4935704;28;7065;-64
2022/12/08 06:32:00;;;;;;;;;;;;;;;25.68;41.13;93470.50;4935930;28;7275;-63
2022/12/08 06:34:37;;;;;;;;;;;;;;;25.69;41.55;93473.97;4948898;28;7240;-62
2022/12/08 06:37:15;;;;;;;;;;;;;;;25.72;41.14;93473.66;4946713;28;8780;-63
2022/12/08 06:39:53;;;;;;;;;;;;;;;25.71;40.67;93463.19;4936397;28;7505;-64
2022/12/08 06:42:42;;;;;;;;;;;;;;;25.68;40.86;93459.47;4945261;28;9056;-64
2022/12/08 06:45:11;;;;;;;;;;;;;;;25.71;40.48;93469.41;4938576;28;7497;-63
2022/12/08 06:47:46;;;;;;;;;;;;;;;25.71;40.37;93468.69;4944314;28;8876;-62
2022/12/08 06:50:28;;;;;;;;;;;;;;;25.71;40.37;93469.41;4949120;28;7258;-63
2022/12/08 06:53:04;;;;;;;;;;;;;;;25.71;40.86;93460.44;4944154;28;7211;-63
2022/12/08 06:55:31;;;;;;;;;;;;;;;25.68;41.12;93470.50;4941462;28;9447;-63
2022/12/08 06:57:57;;;;;;;;;;;;;;;25.64;41.29;93472.84;4929368;28;9273;-63
2022/12/08 07:00:33;;;;;;;;;;;;;;;25.67;41.76;93471.00;4945077;28;6981;-63
2022/12/08 07:03:10;;;;;;;;;;;;;;;25.67;41.19;93469.00;4952490;28;7130;-63
2022/12/08 07:05:40;;;;;;;;;;;;;;;25.68;41.60;93470.50;4989730;28;7290;-64
2022/12/08 07:08:07;;;;;;;;;;;;;;;25.69;40.69;93471.22;4987128;28;7206;-63
2022/12/08 07:10:40;;;;;;;;;;;;;;;25.67;41.23;93480.00;4984038;28;7057;-63
2022/12/08 07:13:06;;;;;;;;;;;;;;;25.67;41.29;93479.25;5002834;28;7301;-65
2022/12/08 07:15:32;;;;;;;;;;;;;;;25.68;41.30;93481.50;4995556;28;7019;-64
2022/12/08 07:18:05;;;;;;;;;;;;;;;25.70;41.41;93489.97;4982439;28;7337;-62
2022/12/08 07:21:01;;;;;;;;;;;;;;;25.70;41.72;93484.47;4988539;28;7164;-63
2022/12/08 07:23:37;;;;;;;;;;;;;;;25.71;41.03;93476.94;4968271;28;8652;-64
2022/12/08 07:26:09;;;;;;;;;;;;;;;25.71;40.78;93472.16;4955217;28;7619;-62
2022/12/08 07:28:44;;;;;;;;;;;;;;;25.74;41.38;93475.88;4963214;28;9432;-63
2022/12/08 07:31:20;;;;;;;;;;;;;;;25.74;41.84;93473.09;4952650;28;7046;-64
2022/12/08 07:34:03;;;;;;;;;;;;;;;25.71;41.05;93472.16;4952087;28;9011;-63
2022/12/08 07:36:31;;;;;;;;;;;;;;;25.73;41.02;93474.41;4947042;28;7405;-63
2022/12/08 07:39:08;;;;;;;;;;;;;;;25.74;41.64;93479.38;4952420;28;7024;-63
2022/12/08 07:41:34;;;;;;;;;;;;;;;25.73;41.21;93472.38;4968405;28;7185;-62
2022/12/08 07:44:03;;;;;;;;;;;;;;;25.72;40.78;93470.91;4952569;28;7233;-63
2022/12/08 07:46:30;;;;;;;;;;;;;;;25.72;40.94;93481.91;4953094;28;6860;-63
2022/12/08 07:49:05;;;;;;;;;;;;;;;25.72;41.04;93479.16;4956928;28;7065;-63
2022/12/08 07:51:33;;;;;;;;;;;;;;;25.72;41.62;93473.66;4968984;28;7073;-63
2022/12/08 07:53:59;;;;;;;;;;;;;;;25.72;41.29;93470.91;4971268;28;7624;-63
2022/12/08 07:56:43;;;;;;;;;;;;;;;25.73;40.99;93472.38;4956748;28;7590;-64
2022/12/08 07:59:18;;;;;;;;;;;;;;;25.72;41.14;93473.66;4964357;28;7116;-63
2022/12/08 08:01:54;;;;;;;;;;;;;;;25.71;40.59;93469.41;4992152;28;9711;-63
2022/12/08 08:04:29;;;;;;;;;;;;;;;25.72;41.21;93464.63;4996209;28;9437;-63
2022/12/08 08:06:57;;;;;;;;;;;;;;;25.71;41.08;93463.91;4998882;28;8299;-63
2022/12/08 08:09:28;;;;;;;;;;;;;;;25.72;41.41;93453.63;4983733;28;7275;-63
2022/12/08 08:11:56;;;;;;;;;;;;;;;25.72;41.59;93451.63;4985292;28;7051;-63
2022/12/08 08:14:24;;;;;;;;;;;;;;;25.72;41.51;93453.63;4987478;28;7054;-63
2022/12/08 08:17:05;;;;;;;;;;;;;;;25.72;41.69;93453.63;4984328;28;7321;-64
2022/12/08 08:19:33;;;;;;;;;;;;;;;25.73;41.16;93450.31;4985632;28;7306;-63
2022/12/08 08:22:18;;;;;;;;;;;;;;;25.73;42.00;93447.56;4982113;28;8665;-63
2022/12/08 08:25:01;;;;;;;;;;;;;;;25.73;41.33;93447.56;4982193;28;7479;-64
2022/12/08 08:27:48;;;;;;;;;;;;;;;25.74;41.65;93440.81;5006810;28;7266;-63
2022/12/08 08:30:25;;;;;;;;;;;;;;;25.75;41.77;93442.28;4989978;28;9286;-63
2022/12/08 08:33:06;;;;;;;;;;;;;;;25.75;40.98;93447.78;4984394;28;9597;-64
2022/12/08 08:35:33;;;;;;;;;;;;;;;25.73;41.33;93453.09;4980996;28;7425;-64
2022/12/08 08:38:08;;;;;;;;;;;;;;;25.72;40.99;93446.09;4988164;28;7162;-64
2022/12/08 08:41:01;;;;;;;;;;;;;;;25.74;41.19;93451.81;4982407;28;8768;-64
2022/12/08 08:43:27;;;;;;;;;;;;;;;25.73;41.06;93455.13;4998879;28;7285;-64
2022/12/08 08:45:59;;;;;;;;;;;;;;;25.75;41.24;93453.28;4989997;28;8403;-64
2022/12/08 08:48:35;;;;;;;;;;;;;;;25.77;41.57;93455.53;4997559;28;9431;-63
2022/12/08 08:51:12;;;;;;;;;;;;;;;25.76;41.21;93449.28;4999001;28;7769;-63
2022/12/08 08:53:38;;;;;;;;;;;;;;;25.76;40.92;93443.75;4989779;28;7026;-64
2022/12/08 08:56:14;;;;;;;;;;;;;;;25.79;41.13;93448.22;4982833;28;7024;-62
2022/12/08 08:58:40;;;;;;;;;;;;;;;25.80;41.43;93443.41;4980766;28;7050;-62
2022/12/08 09:01:24;;;;;;;;;;;;;;;25.79;41.24;93450.97;5002453;28;7036;-62
2022/12/08 09:03:51;;;;;;;;;;;;;;;25.79;41.40;93445.47;4995687;28;9000;-61
2022/12/08 09:06:17;;;;;;;;;;;;;;;25.77;41.07;93444.50;4988183;28;7035;-62
2022/12/08 09:08:50;;;;;;;;;;;;;;;25.80;41.61;93435.91;5005550;28;7044;-62
2022/12/08 09:11:19;;;;;;;;;;;;;;;25.82;41.49;93449.88;4985100;28;7640;-62
2022/12/08 09:13:53;;;;;;;;;;;;;;;25.83;40.86;93442.38;5004138;28;7140;-63
2022/12/08 09:16:27;;;;;;;;;;;;;;;25.84;41.52;93433.56;4980384;28;7038;-62
2022/12/08 09:19:06;;;;;;;;;;;;;;;25.84;41.33;93438.31;5004641;28;8978;-62
2022/12/08 09:21:38;;;;;;;;;;;;;;;25.84;41.72;93441.81;4986703;28;9713;-63
2022/12/08 09:24:07;;;;;;;;;;;;;;;25.84;41.13;93441.06;4991019;28;7318;-62
2022/12/08 09:26:59;;;;;;;;;;;;;;;25.84;40.99;93433.56;4976983;28;6956;-62
2022/12/08 09:29:27;;;;;;;;;;;;;;;25.85;40.66;93432.28;4933250;29;7791;-62
2022/12/08 09:31:56;;;;;;;;;;;;;;;25.84;41.11;93432.81;4934713;29;7383;-62
2022/12/08 09:34:22;;;;;;;;;;;;;;;25.86;41.83;93439.28;4911312;29;7087;-62
2022/12/08 09:36:48;;;;;;;;;;;;;;;25.85;40.78;93426.03;4916018;29;6988;-62
2022/12/08 09:39:22;;;;;;;;;;;;;;;25.83;41.31;93432.09;4916230;29;9248;-62
2022/12/08 09:42:44;;;;;;;;;;;;;;;25.85;41.32;93432.28;4918598;29;7695;-62
2022/12/08 09:45:23;;;;;;;;;;;;;;;25.84;41.40;93421.78;4856669;29;9179;-62
2022/12/08 09:48:16;;;;;;;;;;;;;;;25.86;41.43;93422.75;4842042;29;7046;-62
2022/12/08 09:50:56;;;;;;;;;;;;;;;25.83;41.55;93418.31;4858278;29;7048;-63
2022/12/08 09:53:29;;;;;;;;;;;;;;;25.86;41.04;93420.00;4853117;29;8583;-61
2022/12/08 09:55:59;;;;;;;;;;;;;;;25.84;40.89;93417.03;4842768;29;8211;-62
2022/12/08 09:58:37;;;;;;;;;;;;;;;25.87;41.69;93409.72;4843990;29;9449;-62
2022/12/08 10:01:14;;;;;;;;;;;;;;;25.85;41.23;93402.00;4856044;29;9531;-63
2022/12/08 10:04:22;;;;;;;;;;;;;;;25.86;41.11;93408.25;4843324;29;8493;-62
2022/12/08 10:07:00;;;;;;;;;;;;;;;25.87;41.30;93398.69;4873648;29;7878;-62
2022/12/08 10:09:40;;;;;;;;;;;;;;;25.87;41.25;93393.94;4891922;29;7102;-63
2022/12/08 10:12:16;;;;;;;;;;;;;;;25.85;41.14;93393.72;4891280;29;7329;-61
2022/12/08 10:14:52;;;;;;;;;;;;;;;25.84;41.66;93383.22;4886855;29;7207;-62
2022/12/08 10:17:43;;;;;;;;;;;;;;;25.84;41.67;93381.22;4877650;29;9268;-62
2022/12/08 10:20:22;;;;;;;;;;;;;;;25.86;41.70;93375.91;4900311;28;9439;-62
2022/12/08 10:23:11;;;;;;;;;;;;;;;25.87;41.35;93379.41;4973867;28;9325;-61
2022/12/08 10:25:44;;;;;;;;;;;;;;;25.87;41.74;93371.16;5002006;28;7518;-61
2022/12/08 10:28:11;;;;;;;;;;;;;;;25.87;41.41;93374.66;4980708;28;9069;-63
2022/12/08 10:30:38;;;;;;;;;;;;;;;25.86;41.26;93366.94;4986088;28;8893;-61
2022/12/08 10:33:18;;;;;;;;;;;;;;;25.89;40.45;93363.81;4987533;28;8914;-61
2022/12/08 10:35:51;;;;;;;;;;;;;;;25.87;40.76;93355.38;4988446;28;7041;-63
2022/12/08 10:38:32;;;;;;;;;;;;;;;25.86;41.16;93356.63;4987751;28;7088;-62
2022/12/08 10:41:19;;;;;;;;;;;;;;;25.88;40.84;93351.31;4995211;28;9043;-62
2022/12/08 10:43:51;;;;;;;;;;;;;;;25.83;40.96;93343.94;4976605;28;7206;-62
2022/12/08 10:46:24;;;;;;;;;;;;;;;25.88;40.65;93345.81;4983948;28;7464;-61
2022/12/08 10:49:04;;;;;;;;;;;;;;;25.87;40.75;93347.09;4984480;28;7194;-62
2022/12/08 10:51:33;;;;;;;;;;;;;;;25.89;40.17;93341.03;4984807;28;7272;-62
2022/12/08 10:54:07;;;;;;;;;;;;;;;25.88;41.46;93339.59;4980850;28;9068;-62
2022/12/08 10:56:53;;;;;;;;;;;;;;;25.89;40.30;93344.53;4979668;28;8746;-62
2022/12/08 10:59:19;;;;;;;;;;;;;;;25.91;40.74;93344.00;4983011;28;7097;-62
2022/12/08 11:01:48;;;;;;;;;;;;;;;25.89;41.06;93330.03;4989101;28;7017;-62
2022/12/08 11:04:34;;;;;;;;;;;;;;;25.90;40.82;93335.00;4982824;28;7287;-62
2022/12/08 11:07:05;;;;;;;;;;;;;;;25.91;40.72;93324.72;4981678;28;7179;-63
2022/12/08 11:09:51;;;;;;;;;;;;;;;25.94;40.69;93321.63;4986337;28;7954;-64
2022/12/08 11:12:26;;;;;;;;;;;;;;;25.97;40.52;93319.78;4982389;28;7077;-62
2022/12/08 11:15:02;;;;;;;;;;;;;;;25.93;40.58;93306.38;4985002;28;7317;-63
2022/12/08 11:17:38;;;;;;;;;;;;;;;25.96;40.92;93296.28;4994871;28;7279;-61
2022/12/08 11:20:21;;;;;;;;;;;;;;;25.99;40.98;93304.22;4979084;28;8227;-62
2022/12/08 11:22:54;;;;;;;;;;;;;;;25.99;40.93;93295.22;4979782;28;7135;-62
2022/12/08 11:25:26;;;;;;;;;;;;;;;25.97;41.04;93303.25;4974484;28;9300;-62
2022/12/08 11:28:00;;;;;;;;;;;;;;;25.94;40.48;93296.84;4995560;28;7234;-63
2022/12/08 11:30:41;;;;;;;;;;;;;;;25.95;40.64;93298.31;4992379;28;8273;-63
2022/12/08 11:33:24;;;;;;;;;;;;;;;25.92;40.66;93304.16;4986667;28;9026;-63
2022/12/08 11:36:21;;;;;;;;;;;;;;;25.93;40.70;93300.13;4980230;28;7226;-62
2022/12/08 11:38:56;;;;;;;;;;;;;;;25.91;41.33;93302.69;4983696;28;10220;-63
2022/12/08 11:41:29;;;;;;;;;;;;;;;25.90;41.84;93304.69;4990687;28;7021;-63
2022/12/08 11:44:21;;;;;;;;;;;;;;;25.94;41.00;93302.34;4999593;28;9048;-62
2022/12/08 11:47:13;;;;;;;;;;;;;;;25.92;41.05;93293.16;4997196;28;8913;-63
2022/12/08 11:49:46;;;;;;;;;;;;;;;25.93;41.46;93287.09;4980454;28;7295;-63
2022/12/08 11:52:44;;;;;;;;;;;;;;;25.96;41.84;93288.78;4984340;28;9345;-63
2022/12/08 11:55:34;;;;;;;;;;;;;;;25.94;41.90;93282.31;4946840;28;7041;-63
2022/12/08 11:58:22;;;;;;;;;;;;;;;25.95;41.65;93273.50;4959276;28;7431;-62
2022/12/08 12:00:49;;;;;;;;;;;;;;;25.96;41.52;93275.00;4941565;28;7339;-63
2022/12/08 12:03:29;;;;;;;;;;;;;;;25.97;41.88;93270.94;4958524;28;7558;-63
2022/12/08 12:06:36;;;;;;;;;;;;;;;26.01;41.97;93265.13;4963325;28;7392;-63
2022/12/08 12:09:11;;;;;;;;;;;;;;;26.03;41.35;93268.78;4907870;29;7401;-61
2022/12/08 12:14:54;;;;;;;;;;;;;;;26.11;40.98;93253.09;4913741;29;7105;-64
2022/12/08 12:17:20;;;;;;;;;;;;;;;26.13;41.40;93256.03;4906974;29;7047;-63
2022/12/08 12:20:10;;;;;;;;;;;;;;;26.15;41.96;93259.00;4912905;29;8432;-64
2022/12/08 12:22:38;;;;;;;;;;;;;;;26.15;41.72;93247.97;4913061;29;7424;-62
2022/12/08 12:25:50;;;;;;;;;;;;;;;26.20;41.83;93248.34;4911595;29;7002;-63
2022/12/08 12:28:33;;;;;;;;;;;;;;;26.22;41.89;93243.03;4896021;29;7159;-64
2022/12/08 12:31:09;;;;;;;;;;;;;;;26.22;41.80;93241.03;4888740;29;7064;-64
2022/12/08 12:33:55;;;;;;;;;;;;;;;26.24;41.94;93238.47;4904938;29;7015;-63
2022/12/08 12:37:02;;;;;;;;;;;;;;;26.26;42.02;93235.16;4912999;29;9474;-61
2022/12/08 12:40:00;;;;;;;;;;;;;;;26.30;41.82;93227.28;4878157;29;7275;-63
2022/12/08 12:42:36;;;;;;;;;;;;;;;26.30;40.90;93232.78;4840214;29;7128;-63
2022/12/08 12:45:19;;;;;;;;;;;;;;;26.30;41.33;93221.75;4844705;29;7435;-61
2022/12/08 12:48:00;;;;;;;;;;;;;;;26.34;41.36;93227.69;4854729;29;7261;-63
2022/12/08 12:50:51;;;;;;;;;;;;;;;26.35;41.50;93221.63;4859572;29;7205;-63
2022/12/08 12:53:16;;;;;;;;;;;;;;;26.38;40.92;93219.78;4859567;29;9110;-63
2022/12/08 12:55:52;;;;;;;;;;;;;;;26.38;41.06;93223.28;4859381;29;7534;-63
2022/12/08 12:58:30;;;;;;;;;;;;;;;26.37;41.09;93221.81;4840314;29;7061;-63
2022/12/08 13:01:43;;;;;;;;;;;;;;;26.39;41.47;93226.78;4855903;29;7111;-62
2022/12/08 13:04:19;;;;;;;;;;;;;;;26.38;41.25;93228.06;4860742;29;7269;-63
2022/12/08 13:06:55;;;;;;;;;;;;;;;26.39;41.58;93215.75;4858356;29;7087;-64
2022/12/08 13:09:38;;;;;;;;;;;;;;;26.39;41.16;93213.00;4851705;29;7223;-64
2022/12/08 13:12:11;;;;;;;;;;;;;;;26.42;41.05;93211.91;4859801;29;9361;-63
2022/12/08 13:14:50;;;;;;;;;;;;;;;26.42;41.32;93220.19;4864300;29;7677;-64
2022/12/08 13:17:38;;;;;;;;;;;;;;;26.44;41.15;93214.84;4897309;29;7041;-61
2022/12/08 13:20:24;;;;;;;;;;;;;;;26.48;40.76;93218.00;4989870;28;7008;-62
2022/12/08 13:23:01;;;;;;;;;;;;;;;26.49;41.07;93219.50;4985479;28;7045;-62
2022/12/08 13:25:47;;;;;;;;;;;;;;;26.50;40.84;93215.44;4993523;28;8335;-63
2022/12/08 13:28:25;;;;;;;;;;;;;;;26.52;40.58;93210.09;4988381;28;9576;-62
2022/12/08 13:31:55;;;;;;;;;;;;;;;26.54;40.73;93210.28;4986512;28;8648;-63
2022/12/08 13:34:40;;;;;;;;;;;;;;;26.56;40.43;93205.72;4907107;29;7534;-63
2022/12/08 13:37:13;;;;;;;;;;;;;;;26.59;40.65;93195.63;4909238;29;7042;-63
2022/12/08 13:39:38;;;;;;;;;;;;;;;26.60;40.26;93202.63;4916451;29;7089;-62
2022/12/08 13:42:10;;;;;;;;;;;;;;;26.61;40.36;93204.09;4901317;29;6989;-63
2022/12/08 13:44:54;;;;;;;;;;;;;;;26.63;40.66;93201.50;4898692;29;9045;-62
2022/12/08 13:47:52;;;;;;;;;;;;;;;26.65;40.80;93198.94;4900446;29;8711;-63
2022/12/08 13:51:12;;;;;;;;;;;;;;;26.67;40.57;93204.66;4921609;29;7231;-63
2022/12/08 13:53:44;;;;;;;;;;;;;;;26.69;40.42;93204.84;4859808;29;7548;-64
2022/12/08 13:56:14;;;;;;;;;;;;;;;26.71;40.15;93213.31;4860410;29;10276;-63
2022/12/08 13:58:41;;;;;;;;;;;;;;;26.72;40.38;93203.75;4855927;29;9007;-63